sensor_id;sensor_type;location;lat;lon;timestamp;P1;durP1;ratioP1;P2;durP2;ratioP2
10731;SDS011;5417;42.686;23.244;2022-07-29T00:02:11;11.37;;;10.57;;
10731;SDS011;5417;42.686;23.244;2022-07-29T00:04:40;12.37;;;11.33;;
10731;SDS011;5417;42.686;23.244;2022-07-29T00:07:09;11.93;;;10.90;;
10731;SDS011;5417;42.686;23.244;2022-07-29T00:09:40;11.67;;;10.80;;
10731;SDS011;5417;42.686;23.244;2022-07-29T00:12:10;11.27;;;10.47;;
10731;SDS011;5417;42.686;23.244;2022-07-29T00:14:37;10.53;;;9.73;;
10731;SDS011;5417;42.686;23.244;2022-07-29T00:17:06;11.47;;;10.57;;
10731;SDS011;5417;42.686;23.244;2022-07-29T00:19:33;11.47;;;10.50;;
10731;SDS011;5417;42.686;23.244;2022-07-29T00:22:02;10.93;;;10.17;;
10731;SDS011;5417;42.686;23.244;2022-07-29T00:24:29;11.33;;;10.33;;
10731;SDS011;5417;42.686;23.244;2022-07-29T00:27:03;10.50;;;9.53;;
10731;SDS011;5417;42.686;23.244;2022-07-29T00:29:30;11.07;;;10.10;;
10731;SDS011;5417;42.686;23.244;2022-07-29T00:31:59;10.93;;;9.93;;
10731;SDS011;5417;42.686;23.244;2022-07-29T00:34:26;10.73;;;9.63;;
10731;SDS011;5417;42.686;23.244;2022-07-29T00:37:16;9.43;;;8.73;;
10731;SDS011;5417;42.686;23.244;2022-07-29T00:39:43;11.17;;;10.17;;
10731;SDS011;5417;42.686;23.244;2022-07-29T00:42:11;10.37;;;9.67;;
10731;SDS011;5417;42.686;23.244;2022-07-29T00:44:44;10.30;;;9.60;;
10731;SDS011;5417;42.686;23.244;2022-07-29T00:47:11;11.77;;;10.77;;
10731;SDS011;5417;42.686;23.244;2022-07-29T00:49:41;11.00;;;10.10;;
10731;SDS011;5417;42.686;23.244;2022-07-29T00:52:09;10.70;;;9.80;;
10731;SDS011;5417;42.686;23.244;2022-07-29T00:54:39;10.80;;;9.90;;
10731;SDS011;5417;42.686;23.244;2022-07-29T00:57:09;10.40;;;9.60;;
10731;SDS011;5417;42.686;23.244;2022-07-29T00:59:58;11.37;;;10.27;;
10731;SDS011;5417;42.686;23.244;2022-07-29T01:02:27;11.33;;;10.33;;
10731;SDS011;5417;42.686;23.244;2022-07-29T01:04:54;14.07;;;10.73;;
10731;SDS011;5417;42.686;23.244;2022-07-29T01:07:25;11.80;;;10.57;;
10731;SDS011;5417;42.686;23.244;2022-07-29T01:09:53;11.73;;;10.47;;
10731;SDS011;5417;42.686;23.244;2022-07-29T01:12:28;10.67;;;9.83;;
10731;SDS011;5417;42.686;23.244;2022-07-29T01:14:58;11.67;;;10.67;;
10731;SDS011;5417;42.686;23.244;2022-07-29T01:17:27;10.77;;;9.97;;
10731;SDS011;5417;42.686;23.244;2022-07-29T01:20:02;11.83;;;10.87;;
10731;SDS011;5417;42.686;23.244;2022-07-29T01:22:39;10.67;;;9.73;;
10731;SDS011;5417;42.686;23.244;2022-07-29T01:25:40;10.57;;;9.83;;
10731;SDS011;5417;42.686;23.244;2022-07-29T01:28:48;11.77;;;10.67;;
10731;SDS011;5417;42.686;23.244;2022-07-29T01:31:25;11.30;;;10.23;;
10731;SDS011;5417;42.686;23.244;2022-07-29T01:34:01;10.87;;;10.07;;
10731;SDS011;5417;42.686;23.244;2022-07-29T01:36:43;12.00;;;10.70;;
10731;SDS011;5417;42.686;23.244;2022-07-29T01:39:16;12.20;;;10.13;;
10731;SDS011;5417;42.686;23.244;2022-07-29T01:41:49;10.73;;;9.77;;
10731;SDS011;5417;42.686;23.244;2022-07-29T01:44:30;10.87;;;9.73;;
10731;SDS011;5417;42.686;23.244;2022-07-29T01:47:00;13.40;;;11.17;;
10731;SDS011;5417;42.686;23.244;2022-07-29T01:49:35;11.23;;;10.23;;
10731;SDS011;5417;42.686;23.244;2022-07-29T01:52:07;11.47;;;10.47;;
10731;SDS011;5417;42.686;23.244;2022-07-29T01:54:39;10.90;;;9.70;;
10731;SDS011;5417;42.686;23.244;2022-07-29T01:57:13;11.70;;;10.53;;
10731;SDS011;5417;42.686;23.244;2022-07-29T01:59:43;10.90;;;9.93;;
10731;SDS011;5417;42.686;23.244;2022-07-29T02:02:13;11.90;;;10.80;;
10731;SDS011;5417;42.686;23.244;2022-07-29T02:04:41;12.67;;;10.90;;
10731;SDS011;5417;42.686;23.244;2022-07-29T02:07:13;11.33;;;10.40;;
10731;SDS011;5417;42.686;23.244;2022-07-29T02:09:44;11.87;;;10.73;;
10731;SDS011;5417;42.686;23.244;2022-07-29T02:12:13;12.27;;;10.83;;
10731;SDS011;5417;42.686;23.244;2022-07-29T02:14:47;12.03;;;10.80;;
10731;SDS011;5417;42.686;23.244;2022-07-29T02:17:18;11.67;;;10.57;;
10731;SDS011;5417;42.686;23.244;2022-07-29T02:19:49;11.57;;;10.47;;
10731;SDS011;5417;42.686;23.244;2022-07-29T02:22:18;21.07;;;18.97;;
10731;SDS011;5417;42.686;23.244;2022-07-29T02:24:46;21.13;;;19.10;;
10731;SDS011;5417;42.686;23.244;2022-07-29T02:27:17;13.07;;;11.87;;
10731;SDS011;5417;42.686;23.244;2022-07-29T02:29:47;11.47;;;10.57;;
10731;SDS011;5417;42.686;23.244;2022-07-29T02:32:16;12.03;;;10.97;;
10731;SDS011;5417;42.686;23.244;2022-07-29T02:34:44;12.00;;;10.23;;
10731;SDS011;5417;42.686;23.244;2022-07-29T02:37:12;11.50;;;10.23;;
10731;SDS011;5417;42.686;23.244;2022-07-29T02:39:42;62.00;;;52.30;;
10731;SDS011;5417;42.686;23.244;2022-07-29T02:42:11;19.87;;;17.73;;
10731;SDS011;5417;42.686;23.244;2022-07-29T02:44:42;12.47;;;11.37;;
10731;SDS011;5417;42.686;23.244;2022-07-29T02:47:13;12.30;;;11.20;;
10731;SDS011;5417;42.686;23.244;2022-07-29T02:49:47;11.80;;;10.80;;
10731;SDS011;5417;42.686;23.244;2022-07-29T02:52:19;12.40;;;11.20;;
10731;SDS011;5417;42.686;23.244;2022-07-29T02:55:10;11.93;;;10.83;;
10731;SDS011;5417;42.686;23.244;2022-07-29T02:57:42;12.37;;;11.23;;
10731;SDS011;5417;42.686;23.244;2022-07-29T03:00:11;12.67;;;11.37;;
10731;SDS011;5417;42.686;23.244;2022-07-29T03:02:42;12.20;;;11.00;;
10731;SDS011;5417;42.686;23.244;2022-07-29T03:05:12;13.17;;;11.83;;
10731;SDS011;5417;42.686;23.244;2022-07-29T03:07:45;11.37;;;10.47;;
10731;SDS011;5417;42.686;23.244;2022-07-29T03:10:15;13.03;;;11.93;;
10731;SDS011;5417;42.686;23.244;2022-07-29T03:12:43;13.57;;;11.63;;
10731;SDS011;5417;42.686;23.244;2022-07-29T03:15:10;12.67;;;11.60;;
10731;SDS011;5417;42.686;23.244;2022-07-29T03:17:37;13.60;;;12.17;;
10731;SDS011;5417;42.686;23.244;2022-07-29T03:20:08;13.67;;;12.30;;
10731;SDS011;5417;42.686;23.244;2022-07-29T03:22:38;13.10;;;11.73;;
10731;SDS011;5417;42.686;23.244;2022-07-29T03:25:08;13.37;;;12.23;;
10731;SDS011;5417;42.686;23.244;2022-07-29T03:27:36;14.07;;;12.73;;
10731;SDS011;5417;42.686;23.244;2022-07-29T03:30:03;14.23;;;12.60;;
10731;SDS011;5417;42.686;23.244;2022-07-29T03:32:31;13.47;;;12.10;;
10731;SDS011;5417;42.686;23.244;2022-07-29T03:34:59;14.37;;;12.80;;
10731;SDS011;5417;42.686;23.244;2022-07-29T03:37:26;14.80;;;13.23;;
10731;SDS011;5417;42.686;23.244;2022-07-29T03:39:55;14.90;;;13.13;;
10731;SDS011;5417;42.686;23.244;2022-07-29T03:42:24;15.80;;;13.73;;
10731;SDS011;5417;42.686;23.244;2022-07-29T03:44:54;14.73;;;13.30;;
10731;SDS011;5417;42.686;23.244;2022-07-29T03:47:24;17.60;;;12.90;;
10731;SDS011;5417;42.686;23.244;2022-07-29T03:49:54;14.60;;;13.30;;
10731;SDS011;5417;42.686;23.244;2022-07-29T03:52:27;14.23;;;12.83;;
10731;SDS011;5417;42.686;23.244;2022-07-29T03:54:54;13.37;;;12.20;;
10731;SDS011;5417;42.686;23.244;2022-07-29T03:57:23;15.13;;;13.70;;
10731;SDS011;5417;42.686;23.244;2022-07-29T03:59:53;14.83;;;13.37;;
10731;SDS011;5417;42.686;23.244;2022-07-29T04:02:21;14.67;;;13.13;;
10731;SDS011;5417;42.686;23.244;2022-07-29T04:04:49;14.47;;;13.13;;
10731;SDS011;5417;42.686;23.244;2022-07-29T04:07:16;15.87;;;13.00;;
10731;SDS011;5417;42.686;23.244;2022-07-29T04:09:45;14.10;;;12.57;;
10731;SDS011;5417;42.686;23.244;2022-07-29T04:12:12;14.83;;;12.63;;
10731;SDS011;5417;42.686;23.244;2022-07-29T04:14:39;14.27;;;13.03;;
10731;SDS011;5417;42.686;23.244;2022-07-29T04:17:05;14.00;;;12.77;;
10731;SDS011;5417;42.686;23.244;2022-07-29T04:19:32;13.87;;;12.73;;
10731;SDS011;5417;42.686;23.244;2022-07-29T04:22:00;14.30;;;13.00;;
10731;SDS011;5417;42.686;23.244;2022-07-29T04:24:27;14.93;;;13.53;;
10731;SDS011;5417;42.686;23.244;2022-07-29T04:26:55;14.63;;;13.33;;
10731;SDS011;5417;42.686;23.244;2022-07-29T04:29:22;14.70;;;13.20;;
10731;SDS011;5417;42.686;23.244;2022-07-29T04:31:49;14.33;;;13.03;;
10731;SDS011;5417;42.686;23.244;2022-07-29T04:34:16;16.30;;;13.70;;
10731;SDS011;5417;42.686;23.244;2022-07-29T04:36:43;14.20;;;12.90;;
10731;SDS011;5417;42.686;23.244;2022-07-29T04:39:10;14.50;;;13.20;;
10731;SDS011;5417;42.686;23.244;2022-07-29T04:41:37;15.87;;;14.27;;
10731;SDS011;5417;42.686;23.244;2022-07-29T04:44:05;15.23;;;13.93;;
10731;SDS011;5417;42.686;23.244;2022-07-29T04:46:32;15.13;;;13.10;;
10731;SDS011;5417;42.686;23.244;2022-07-29T04:49:00;15.77;;;14.13;;
10731;SDS011;5417;42.686;23.244;2022-07-29T04:51:27;15.50;;;14.10;;
10731;SDS011;5417;42.686;23.244;2022-07-29T04:53:54;15.47;;;14.03;;
10731;SDS011;5417;42.686;23.244;2022-07-29T04:56:21;13.53;;;12.23;;
10731;SDS011;5417;42.686;23.244;2022-07-29T04:58:48;13.40;;;12.27;;
10731;SDS011;5417;42.686;23.244;2022-07-29T05:04:29;14.03;;;12.70;;
10731;SDS011;5417;42.686;23.244;2022-07-29T05:06:56;12.67;;;11.63;;
10731;SDS011;5417;42.686;23.244;2022-07-29T05:09:29;13.67;;;12.57;;
10731;SDS011;5417;42.686;23.244;2022-07-29T05:11:57;13.23;;;11.83;;
10731;SDS011;5417;42.686;23.244;2022-07-29T05:14:24;12.23;;;11.30;;
10731;SDS011;5417;42.686;23.244;2022-07-29T05:16:51;12.73;;;11.63;;
10731;SDS011;5417;42.686;23.244;2022-07-29T05:19:21;13.10;;;11.90;;
10731;SDS011;5417;42.686;23.244;2022-07-29T05:21:52;12.07;;;11.17;;
10731;SDS011;5417;42.686;23.244;2022-07-29T05:24:19;12.53;;;11.40;;
10731;SDS011;5417;42.686;23.244;2022-07-29T05:26:48;13.70;;;12.40;;
10731;SDS011;5417;42.686;23.244;2022-07-29T05:29:15;12.87;;;11.67;;
10731;SDS011;5417;42.686;23.244;2022-07-29T05:31:43;12.80;;;11.73;;
10731;SDS011;5417;42.686;23.244;2022-07-29T05:34:10;12.15;;;10.98;;
10731;SDS011;5417;42.686;23.244;2022-07-29T05:36:37;13.52;;;12.25;;
10731;SDS011;5417;42.686;23.244;2022-07-29T05:39:08;13.23;;;12.07;;
10731;SDS011;5417;42.686;23.244;2022-07-29T05:41:35;13.52;;;12.15;;
10731;SDS011;5417;42.686;23.244;2022-07-29T05:44:02;13.57;;;12.38;;
10731;SDS011;5417;42.686;23.244;2022-07-29T05:46:29;11.68;;;10.68;;
10731;SDS011;5417;42.686;23.244;2022-07-29T05:48:58;12.50;;;11.20;;
10731;SDS011;5417;42.686;23.244;2022-07-29T05:51:26;12.70;;;11.43;;
10731;SDS011;5417;42.686;23.244;2022-07-29T05:53:56;13.82;;;12.57;;
10731;SDS011;5417;42.686;23.244;2022-07-29T05:56:26;12.88;;;11.65;;
10731;SDS011;5417;42.686;23.244;2022-07-29T05:58:53;12.18;;;11.18;;
10731;SDS011;5417;42.686;23.244;2022-07-29T06:01:20;12.70;;;11.60;;
10731;SDS011;5417;42.686;23.244;2022-07-29T06:03:47;12.57;;;11.30;;
10731;SDS011;5417;42.686;23.244;2022-07-29T06:06:14;14.23;;;12.90;;
10731;SDS011;5417;42.686;23.244;2022-07-29T06:08:41;15.38;;;13.68;;
10731;SDS011;5417;42.686;23.244;2022-07-29T06:11:08;16.52;;;14.70;;
10731;SDS011;5417;42.686;23.244;2022-07-29T06:13:36;16.88;;;15.27;;
10731;SDS011;5417;42.686;23.244;2022-07-29T06:16:11;16.98;;;15.25;;
10731;SDS011;5417;42.686;23.244;2022-07-29T06:18:38;22.50;;;19.40;;
10731;SDS011;5417;42.686;23.244;2022-07-29T06:21:07;17.55;;;15.95;;
10731;SDS011;5417;42.686;23.244;2022-07-29T06:23:36;18.05;;;15.93;;
10731;SDS011;5417;42.686;23.244;2022-07-29T06:26:05;14.73;;;13.43;;
10731;SDS011;5417;42.686;23.244;2022-07-29T06:28:33;15.27;;;13.88;;
10731;SDS011;5417;42.686;23.244;2022-07-29T06:31:04;14.90;;;13.43;;
10731;SDS011;5417;42.686;23.244;2022-07-29T06:33:34;15.82;;;14.50;;
10731;SDS011;5417;42.686;23.244;2022-07-29T06:36:03;15.88;;;14.35;;
10731;SDS011;5417;42.686;23.244;2022-07-29T06:38:32;14.80;;;13.40;;
10731;SDS011;5417;42.686;23.244;2022-07-29T06:41:17;13.68;;;12.55;;
10731;SDS011;5417;42.686;23.244;2022-07-29T06:43:47;12.77;;;11.52;;
10731;SDS011;5417;42.686;23.244;2022-07-29T06:46:18;14.45;;;13.15;;
10731;SDS011;5417;42.686;23.244;2022-07-29T06:48:46;12.55;;;11.23;;
10731;SDS011;5417;42.686;23.244;2022-07-29T06:51:13;12.90;;;11.85;;
10731;SDS011;5417;42.686;23.244;2022-07-29T06:53:41;13.02;;;12.07;;
10731;SDS011;5417;42.686;23.244;2022-07-29T06:56:10;7.22;;;6.70;;
10731;SDS011;5417;42.686;23.244;2022-07-29T06:58:39;8.10;;;7.05;;
10731;SDS011;5417;42.686;23.244;2022-07-29T07:01:09;7.10;;;6.60;;
10731;SDS011;5417;42.686;23.244;2022-07-29T07:03:38;6.60;;;6.03;;
10731;SDS011;5417;42.686;23.244;2022-07-29T07:06:05;7.82;;;7.18;;
10731;SDS011;5417;42.686;23.244;2022-07-29T07:08:33;6.07;;;5.53;;
10731;SDS011;5417;42.686;23.244;2022-07-29T07:11:02;8.57;;;6.25;;
10731;SDS011;5417;42.686;23.244;2022-07-29T07:13:29;6.80;;;6.20;;
10731;SDS011;5417;42.686;23.244;2022-07-29T07:15:59;7.43;;;6.72;;
10731;SDS011;5417;42.686;23.244;2022-07-29T07:18:29;6.72;;;6.13;;
10731;SDS011;5417;42.686;23.244;2022-07-29T07:20:57;6.43;;;5.93;;
10731;SDS011;5417;42.686;23.244;2022-07-29T07:23:24;6.82;;;6.13;;
10731;SDS011;5417;42.686;23.244;2022-07-29T07:25:51;6.60;;;6.10;;
10731;SDS011;5417;42.686;23.244;2022-07-29T07:28:21;6.75;;;6.35;;
10731;SDS011;5417;42.686;23.244;2022-07-29T07:30:48;6.47;;;5.85;;
10731;SDS011;5417;42.686;23.244;2022-07-29T07:33:17;7.35;;;6.78;;
10731;SDS011;5417;42.686;23.244;2022-07-29T07:35:44;7.00;;;6.40;;
10731;SDS011;5417;42.686;23.244;2022-07-29T07:38:15;7.28;;;6.78;;
10731;SDS011;5417;42.686;23.244;2022-07-29T07:40:44;7.47;;;6.78;;
10731;SDS011;5417;42.686;23.244;2022-07-29T07:43:12;6.88;;;6.20;;
10731;SDS011;5417;42.686;23.244;2022-07-29T07:45:39;6.85;;;6.38;;
10731;SDS011;5417;42.686;23.244;2022-07-29T07:48:06;6.45;;;6.00;;
10731;SDS011;5417;42.686;23.244;2022-07-29T07:50:35;6.60;;;6.10;;
10731;SDS011;5417;42.686;23.244;2022-07-29T07:53:05;7.38;;;6.80;;
10731;SDS011;5417;42.686;23.244;2022-07-29T07:55:33;7.97;;;6.78;;
10731;SDS011;5417;42.686;23.244;2022-07-29T07:58:05;6.03;;;5.63;;
10731;SDS011;5417;42.686;23.244;2022-07-29T08:00:32;6.72;;;6.10;;
10731;SDS011;5417;42.686;23.244;2022-07-29T08:02:59;6.90;;;6.30;;
10731;SDS011;5417;42.686;23.244;2022-07-29T08:05:29;6.45;;;5.93;;
10731;SDS011;5417;42.686;23.244;2022-07-29T08:07:56;6.82;;;6.25;;
10731;SDS011;5417;42.686;23.244;2022-07-29T08:10:25;6.55;;;6.03;;
10731;SDS011;5417;42.686;23.244;2022-07-29T08:13:10;6.63;;;6.00;;
10731;SDS011;5417;42.686;23.244;2022-07-29T08:15:40;6.43;;;6.05;;
10731;SDS011;5417;42.686;23.244;2022-07-29T08:18:08;6.07;;;5.63;;
10731;SDS011;5417;42.686;23.244;2022-07-29T08:20:38;6.13;;;5.60;;
10731;SDS011;5417;42.686;23.244;2022-07-29T08:23:07;6.35;;;5.82;;
10731;SDS011;5417;42.686;23.244;2022-07-29T08:25:35;6.40;;;6.00;;
10731;SDS011;5417;42.686;23.244;2022-07-29T08:28:04;5.93;;;5.43;;
10731;SDS011;5417;42.686;23.244;2022-07-29T08:30:35;6.25;;;5.75;;
10731;SDS011;5417;42.686;23.244;2022-07-29T08:33:02;6.05;;;5.55;;
10731;SDS011;5417;42.686;23.244;2022-07-29T08:35:29;5.57;;;5.00;;
10731;SDS011;5417;42.686;23.244;2022-07-29T08:37:59;4.95;;;4.65;;
10731;SDS011;5417;42.686;23.244;2022-07-29T08:40:28;5.50;;;5.07;;
10731;SDS011;5417;42.686;23.244;2022-07-29T08:42:55;5.88;;;5.30;;
10731;SDS011;5417;42.686;23.244;2022-07-29T08:45:22;10.70;;;5.60;;
10731;SDS011;5417;42.686;23.244;2022-07-29T08:47:51;5.65;;;5.35;;
10731;SDS011;5417;42.686;23.244;2022-07-29T08:50:18;6.60;;;5.50;;
10731;SDS011;5417;42.686;23.244;2022-07-29T08:52:46;5.78;;;5.47;;
10731;SDS011;5417;42.686;23.244;2022-07-29T08:55:18;5.15;;;4.82;;
10731;SDS011;5417;42.686;23.244;2022-07-29T08:57:47;4.68;;;4.35;;
10731;SDS011;5417;42.686;23.244;2022-07-29T09:00:14;5.38;;;4.88;;
10731;SDS011;5417;42.686;23.244;2022-07-29T09:02:43;5.60;;;5.10;;
10731;SDS011;5417;42.686;23.244;2022-07-29T09:05:18;5.75;;;5.25;;
10731;SDS011;5417;42.686;23.244;2022-07-29T09:07:49;4.97;;;4.68;;
10731;SDS011;5417;42.686;23.244;2022-07-29T09:10:19;5.03;;;4.72;;
10731;SDS011;5417;42.686;23.244;2022-07-29T09:12:46;5.20;;;4.90;;
10731;SDS011;5417;42.686;23.244;2022-07-29T09:15:17;5.40;;;5.07;;
10731;SDS011;5417;42.686;23.244;2022-07-29T09:17:47;5.45;;;5.05;;
10731;SDS011;5417;42.686;23.244;2022-07-29T09:20:19;5.30;;;5.00;;
10731;SDS011;5417;42.686;23.244;2022-07-29T09:22:48;5.32;;;4.93;;
10731;SDS011;5417;42.686;23.244;2022-07-29T09:28:06;4.80;;;4.53;;
10731;SDS011;5417;42.686;23.244;2022-07-29T09:30:36;4.88;;;4.43;;
10731;SDS011;5417;42.686;23.244;2022-07-29T09:33:16;5.78;;;5.28;;
10731;SDS011;5417;42.686;23.244;2022-07-29T09:35:45;5.47;;;5.18;;
10731;SDS011;5417;42.686;23.244;2022-07-29T09:38:12;5.78;;;5.18;;
10731;SDS011;5417;42.686;23.244;2022-07-29T09:40:42;5.70;;;5.25;;
10731;SDS011;5417;42.686;23.244;2022-07-29T09:43:24;5.40;;;5.10;;
10731;SDS011;5417;42.686;23.244;2022-07-29T09:45:51;5.68;;;5.38;;
10731;SDS011;5417;42.686;23.244;2022-07-29T09:48:22;5.03;;;4.78;;
10731;SDS011;5417;42.686;23.244;2022-07-29T09:50:54;5.07;;;4.78;;
10731;SDS011;5417;42.686;23.244;2022-07-29T09:53:31;4.80;;;4.55;;
10731;SDS011;5417;42.686;23.244;2022-07-29T09:56:02;5.03;;;4.72;;
10731;SDS011;5417;42.686;23.244;2022-07-29T09:58:33;4.70;;;4.50;;
10731;SDS011;5417;42.686;23.244;2022-07-29T10:01:00;5.60;;;5.10;;
10731;SDS011;5417;42.686;23.244;2022-07-29T10:03:30;5.13;;;4.82;;
10731;SDS011;5417;42.686;23.244;2022-07-29T10:06:05;6.03;;;4.78;;
10731;SDS011;5417;42.686;23.244;2022-07-29T10:08:33;5.07;;;4.75;;
10731;SDS011;5417;42.686;23.244;2022-07-29T10:11:10;5.50;;;5.03;;
10731;SDS011;5417;42.686;23.244;2022-07-29T10:13:38;5.00;;;4.70;;
10731;SDS011;5417;42.686;23.244;2022-07-29T10:16:06;5.40;;;5.00;;
10731;SDS011;5417;42.686;23.244;2022-07-29T10:18:34;4.95;;;4.65;;
10731;SDS011;5417;42.686;23.244;2022-07-29T10:21:05;5.40;;;5.10;;
10731;SDS011;5417;42.686;23.244;2022-07-29T10:23:32;6.25;;;5.28;;
10731;SDS011;5417;42.686;23.244;2022-07-29T10:26:00;5.93;;;5.50;;
10731;SDS011;5417;42.686;23.244;2022-07-29T10:28:28;6.72;;;6.10;;
10731;SDS011;5417;42.686;23.244;2022-07-29T10:30:59;6.38;;;5.28;;
10731;SDS011;5417;42.686;23.244;2022-07-29T10:33:32;6.18;;;5.82;;
10731;SDS011;5417;42.686;23.244;2022-07-29T10:39:08;6.50;;;6.05;;
10731;SDS011;5417;42.686;23.244;2022-07-29T10:41:51;6.40;;;6.00;;
10731;SDS011;5417;42.686;23.244;2022-07-29T10:44:25;6.03;;;5.63;;
10731;SDS011;5417;42.686;23.244;2022-07-29T10:46:53;5.90;;;5.57;;
10731;SDS011;5417;42.686;23.244;2022-07-29T10:49:21;6.40;;;5.95;;
10731;SDS011;5417;42.686;23.244;2022-07-29T10:51:55;6.13;;;5.75;;
10731;SDS011;5417;42.686;23.244;2022-07-29T10:54:37;6.32;;;5.97;;
10731;SDS011;5417;42.686;23.244;2022-07-29T10:57:18;5.95;;;5.60;;
10731;SDS011;5417;42.686;23.244;2022-07-29T11:03:02;6.07;;;5.68;;
10731;SDS011;5417;42.686;23.244;2022-07-29T11:05:29;6.10;;;5.70;;
10731;SDS011;5417;42.686;23.244;2022-07-29T11:10:51;7.40;;;5.97;;
10731;SDS011;5417;42.686;23.244;2022-07-29T11:13:46;7.13;;;6.60;;
10731;SDS011;5417;42.686;23.244;2022-07-29T11:16:15;6.65;;;6.03;;
10731;SDS011;5417;42.686;23.244;2022-07-29T11:21:48;6.43;;;6.00;;
10731;SDS011;5417;42.686;23.244;2022-07-29T11:24:19;6.63;;;6.22;;
10731;SDS011;5417;42.686;23.244;2022-07-29T11:29:50;6.57;;;6.18;;
10731;SDS011;5417;42.686;23.244;2022-07-29T11:32:18;6.72;;;6.25;;
10731;SDS011;5417;42.686;23.244;2022-07-29T11:34:46;7.65;;;6.70;;
10731;SDS011;5417;42.686;23.244;2022-07-29T11:37:18;7.22;;;6.53;;
10731;SDS011;5417;42.686;23.244;2022-07-29T11:42:37;6.53;;;6.03;;
10731;SDS011;5417;42.686;23.244;2022-07-29T11:45:09;7.22;;;6.60;;
10731;SDS011;5417;42.686;23.244;2022-07-29T11:47:39;6.63;;;6.18;;
10731;SDS011;5417;42.686;23.244;2022-07-29T11:50:07;7.18;;;6.78;;
10731;SDS011;5417;42.686;23.244;2022-07-29T11:52:36;6.55;;;6.25;;
10731;SDS011;5417;42.686;23.244;2022-07-29T11:55:09;6.30;;;5.80;;
10731;SDS011;5417;42.686;23.244;2022-07-29T11:57:45;6.50;;;6.10;;
10731;SDS011;5417;42.686;23.244;2022-07-29T12:00:20;12.02;;;10.82;;
10731;SDS011;5417;42.686;23.244;2022-07-29T12:02:49;9.60;;;8.80;;
10731;SDS011;5417;42.686;23.244;2022-07-29T12:05:19;6.90;;;6.22;;
10731;SDS011;5417;42.686;23.244;2022-07-29T12:07:47;10.63;;;9.82;;
10731;SDS011;5417;42.686;23.244;2022-07-29T12:10:16;7.55;;;6.85;;
10731;SDS011;5417;42.686;23.244;2022-07-29T12:12:43;9.02;;;6.82;;
10731;SDS011;5417;42.686;23.244;2022-07-29T12:15:18;7.03;;;6.43;;
10731;SDS011;5417;42.686;23.244;2022-07-29T12:17:46;6.65;;;6.20;;
10731;SDS011;5417;42.686;23.244;2022-07-29T12:20:21;10.40;;;9.63;;
10731;SDS011;5417;42.686;23.244;2022-07-29T12:22:49;6.50;;;6.10;;
10731;SDS011;5417;42.686;23.244;2022-07-29T12:25:20;6.30;;;5.85;;
10731;SDS011;5417;42.686;23.244;2022-07-29T12:27:57;6.75;;;6.25;;
10731;SDS011;5417;42.686;23.244;2022-07-29T12:30:33;6.78;;;6.25;;
10731;SDS011;5417;42.686;23.244;2022-07-29T12:33:11;7.22;;;6.70;;
10731;SDS011;5417;42.686;23.244;2022-07-29T12:35:43;6.72;;;6.20;;
10731;SDS011;5417;42.686;23.244;2022-07-29T12:38:12;6.50;;;6.10;;
10731;SDS011;5417;42.686;23.244;2022-07-29T12:40:44;6.95;;;6.45;;
10731;SDS011;5417;42.686;23.244;2022-07-29T12:43:12;6.32;;;6.03;;
10731;SDS011;5417;42.686;23.244;2022-07-29T12:45:41;7.05;;;6.65;;
10731;SDS011;5417;42.686;23.244;2022-07-29T12:48:11;7.18;;;6.57;;
10731;SDS011;5417;42.686;23.244;2022-07-29T12:50:54;7.18;;;6.53;;
10731;SDS011;5417;42.686;23.244;2022-07-29T12:53:23;7.00;;;6.60;;
10731;SDS011;5417;42.686;23.244;2022-07-29T12:55:52;7.18;;;6.50;;
10731;SDS011;5417;42.686;23.244;2022-07-29T12:58:28;7.15;;;6.68;;
10731;SDS011;5417;42.686;23.244;2022-07-29T13:01:09;6.40;;;6.00;;
10731;SDS011;5417;42.686;23.244;2022-07-29T13:03:42;6.32;;;5.93;;
10731;SDS011;5417;42.686;23.244;2022-07-29T13:08:59;6.72;;;6.32;;
10731;SDS011;5417;42.686;23.244;2022-07-29T13:11:30;7.55;;;7.03;;
10731;SDS011;5417;42.686;23.244;2022-07-29T13:13:57;6.70;;;6.20;;
10731;SDS011;5417;42.686;23.244;2022-07-29T13:16:24;6.55;;;6.05;;
10731;SDS011;5417;42.686;23.244;2022-07-29T13:19:02;6.57;;;6.13;;
10731;SDS011;5417;42.686;23.244;2022-07-29T13:21:34;6.80;;;6.30;;
10731;SDS011;5417;42.686;23.244;2022-07-29T13:24:02;8.98;;;8.40;;
10731;SDS011;5417;42.686;23.244;2022-07-29T13:26:31;7.63;;;7.03;;
10731;SDS011;5417;42.686;23.244;2022-07-29T13:28:58;6.78;;;6.38;;
10731;SDS011;5417;42.686;23.244;2022-07-29T13:31:28;6.95;;;6.60;;
10731;SDS011;5417;42.686;23.244;2022-07-29T13:33:54;6.72;;;6.35;;
10731;SDS011;5417;42.686;23.244;2022-07-29T13:36:22;6.78;;;6.32;;
10731;SDS011;5417;42.686;23.244;2022-07-29T13:38:52;7.15;;;6.55;;
10731;SDS011;5417;42.686;23.244;2022-07-29T13:41:19;6.75;;;6.35;;
10731;SDS011;5417;42.686;23.244;2022-07-29T13:43:47;8.90;;;8.18;;
10731;SDS011;5417;42.686;23.244;2022-07-29T13:46:14;7.40;;;6.90;;
10731;SDS011;5417;42.686;23.244;2022-07-29T13:48:41;6.72;;;6.32;;
10731;SDS011;5417;42.686;23.244;2022-07-29T13:51:08;6.53;;;6.10;;
10731;SDS011;5417;42.686;23.244;2022-07-29T13:53:35;6.78;;;6.38;;
10731;SDS011;5417;42.686;23.244;2022-07-29T13:56:02;6.80;;;6.28;;
10731;SDS011;5417;42.686;23.244;2022-07-29T13:58:31;6.75;;;6.30;;
10731;SDS011;5417;42.686;23.244;2022-07-29T14:00:59;7.15;;;6.65;;
10731;SDS011;5417;42.686;23.244;2022-07-29T14:03:26;6.65;;;6.25;;
10731;SDS011;5417;42.686;23.244;2022-07-29T14:05:54;13.05;;;12.02;;
10731;SDS011;5417;42.686;23.244;2022-07-29T14:08:21;6.57;;;6.15;;
10731;SDS011;5417;42.686;23.244;2022-07-29T14:10:48;6.55;;;6.05;;
10731;SDS011;5417;42.686;23.244;2022-07-29T14:13:15;7.30;;;6.70;;
10731;SDS011;5417;42.686;23.244;2022-07-29T14:15:44;6.18;;;5.88;;
10731;SDS011;5417;42.686;23.244;2022-07-29T14:18:12;6.80;;;6.28;;
10731;SDS011;5417;42.686;23.244;2022-07-29T14:20:39;6.35;;;5.88;;
10731;SDS011;5417;42.686;23.244;2022-07-29T14:23:06;5.90;;;5.60;;
10731;SDS011;5417;42.686;23.244;2022-07-29T14:25:33;7.50;;;7.00;;
10731;SDS011;5417;42.686;23.244;2022-07-29T14:28:00;7.00;;;6.60;;
10731;SDS011;5417;42.686;23.244;2022-07-29T14:30:27;9.13;;;8.38;;
10731;SDS011;5417;42.686;23.244;2022-07-29T14:32:54;6.07;;;5.78;;
10731;SDS011;5417;42.686;23.244;2022-07-29T14:35:22;6.90;;;6.32;;
10731;SDS011;5417;42.686;23.244;2022-07-29T14:37:49;6.40;;;6.00;;
10731;SDS011;5417;42.686;23.244;2022-07-29T14:40:16;7.45;;;6.28;;
10731;SDS011;5417;42.686;23.244;2022-07-29T14:42:43;6.25;;;5.95;;
10731;SDS011;5417;42.686;23.244;2022-07-29T14:45:10;7.03;;;6.55;;
10731;SDS011;5417;42.686;23.244;2022-07-29T14:47:37;6.07;;;5.68;;
10731;SDS011;5417;42.686;23.244;2022-07-29T14:50:05;6.78;;;6.07;;
10731;SDS011;5417;42.686;23.244;2022-07-29T14:52:35;6.40;;;5.90;;
10731;SDS011;5417;42.686;23.244;2022-07-29T14:55:02;6.07;;;5.68;;
10731;SDS011;5417;42.686;23.244;2022-07-29T14:57:30;7.07;;;6.68;;
10731;SDS011;5417;42.686;23.244;2022-07-29T14:59:57;7.07;;;6.57;;
10731;SDS011;5417;42.686;23.244;2022-07-29T15:02:24;6.88;;;6.38;;
10731;SDS011;5417;42.686;23.244;2022-07-29T15:04:51;7.43;;;7.00;;
10731;SDS011;5417;42.686;23.244;2022-07-29T15:07:18;6.50;;;6.10;;
10731;SDS011;5417;42.686;23.244;2022-07-29T15:09:46;6.28;;;5.97;;
10731;SDS011;5417;42.686;23.244;2022-07-29T15:12:13;7.45;;;6.85;;
10731;SDS011;5417;42.686;23.244;2022-07-29T15:14:40;7.32;;;6.93;;
10731;SDS011;5417;42.686;23.244;2022-07-29T15:17:07;7.65;;;7.05;;
10731;SDS011;5417;42.686;23.244;2022-07-29T15:19:34;8.70;;;8.05;;